createdAt,value
2018-08-06T00:02:51.058Z,17.42
2018-08-06T00:08:56.671Z,17.49
2018-08-06T00:15:02.283Z,17.38
2018-08-06T00:21:07.921Z,17.33
2018-08-06T00:27:13.501Z,17.25
2018-08-06T00:33:19.073Z,17.44
2018-08-06T00:39:24.666Z,17.17
2018-08-06T00:45:30.482Z,16.99
2018-08-06T00:51:36.303Z,16.97
2018-08-06T00:57:42.394Z,16.64
2018-08-06T01:03:47.955Z,16.77
2018-08-06T01:09:53.592Z,16.55
2018-08-06T01:15:59.183Z,16.43
2018-08-06T01:22:05.007Z,16.52
2018-08-06T01:28:10.948Z,16.44
2018-08-06T01:34:16.747Z,16.35
2018-08-06T01:40:22.326Z,16.16
2018-08-06T01:46:27.918Z,16.02
2018-08-06T01:52:33.562Z,16.05
2018-08-06T01:58:39.148Z,15.85
2018-08-06T02:04:44.703Z,15.75
2018-08-06T02:10:50.293Z,15.65
2018-08-06T02:16:55.943Z,15.55
2018-08-06T02:23:01.504Z,15.75
2018-08-06T02:29:07.166Z,15.75
2018-08-06T02:35:14.693Z,15.44
2018-08-06T02:41:20.279Z,15.44
2018-08-06T02:47:25.922Z,15.30
2018-08-06T02:53:31.570Z,15.19
2018-08-06T02:59:37.171Z,14.94
2018-08-06T03:05:42.759Z,14.97
2018-08-06T03:11:48.337Z,14.82
2018-08-06T03:17:53.892Z,14.79
2018-08-06T03:23:59.530Z,14.75
2018-08-06T03:30:07.296Z,14.71
2018-08-06T03:36:13.020Z,14.59
2018-08-06T03:42:18.665Z,14.54
2018-08-06T03:48:24.314Z,14.36
2018-08-06T03:54:29.931Z,14.25
2018-08-06T04:00:35.548Z,14.35
2018-08-06T04:06:41.110Z,14.35
2018-08-06T04:12:47.073Z,14.31
2018-08-06T04:18:52.634Z,14.37
2018-08-06T04:24:58.244Z,14.36
2018-08-06T04:31:03.849Z,14.39
2018-08-06T04:37:09.477Z,14.62
2018-08-06T04:43:15.122Z,14.53
2018-08-06T04:49:20.708Z,14.76
2018-08-06T04:55:26.344Z,15.00
2018-08-06T05:01:31.954Z,15.26
2018-08-06T05:07:37.571Z,15.79
2018-08-06T05:13:43.200Z,15.66
2018-08-06T05:19:48.754Z,15.94
2018-08-06T05:25:54.362Z,16.30
2018-08-06T05:31:59.968Z,16.61
2018-08-06T05:38:05.770Z,16.51
2018-08-06T05:44:11.344Z,16.67
2018-08-06T05:50:16.969Z,16.95
2018-08-06T05:56:22.568Z,17.13
2018-08-06T06:02:28.149Z,17.56
2018-08-06T06:08:33.819Z,18.06
2018-08-06T06:14:39.441Z,18.69
2018-08-06T06:20:45.054Z,19.20
2018-08-06T06:26:50.654Z,19.47
2018-08-06T06:32:56.260Z,19.55
2018-08-06T06:39:01.842Z,20.08
2018-08-06T06:45:09.034Z,20.47
2018-08-06T06:51:14.645Z,20.90
2018-08-06T06:57:20.308Z,21.44
2018-08-06T07:03:25.900Z,21.68
2018-08-06T07:09:31.542Z,22.18
2018-08-06T07:15:37.197Z,22.49
2018-08-06T07:21:42.790Z,22.90
2018-08-06T07:27:49.281Z,23.04
2018-08-06T07:33:55.348Z,23.61
2018-08-06T07:40:01.387Z,24.34
2018-08-06T07:46:07.707Z,25.02
2018-08-06T07:52:13.879Z,25.59
2018-08-06T07:58:19.784Z,25.56
2018-08-06T08:04:25.874Z,25.96
2018-08-06T08:10:31.919Z,26.31
2018-08-06T08:16:37.895Z,26.14
2018-08-06T08:22:44.132Z,27.40
2018-08-06T08:28:50.348Z,27.38
2018-08-06T08:34:56.381Z,27.09
2018-08-06T08:41:02.398Z,27.81
2018-08-06T08:47:08.456Z,27.81
2018-08-06T08:53:14.562Z,28.35
2018-08-06T08:59:20.580Z,28.65
2018-08-06T09:05:26.672Z,28.98
2018-08-06T09:11:32.584Z,29.44
2018-08-06T09:17:38.652Z,29.52
2018-08-06T09:23:44.621Z,29.94
2018-08-06T09:29:50.638Z,30.44
2018-08-06T09:35:56.635Z,30.80
2018-08-06T09:42:02.724Z,31.02
2018-08-06T09:48:08.776Z,30.70
2018-08-06T09:54:14.757Z,31.42
2018-08-06T10:00:27.203Z,31.72
2018-08-06T10:06:33.269Z,32.12
2018-08-06T10:12:39.247Z,32.27
2018-08-06T10:18:45.278Z,32.86
2018-08-06T10:24:51.211Z,32.53
2018-08-06T10:30:57.451Z,33.13
2018-08-06T10:37:03.396Z,33.96
2018-08-06T10:43:09.409Z,33.26
2018-08-06T10:49:15.305Z,34.02
2018-08-06T10:55:21.406Z,34.29
2018-08-06T11:01:27.411Z,34.76
2018-08-06T11:07:33.358Z,34.61
2018-08-06T11:13:39.365Z,35.98
2018-08-06T11:19:45.112Z,35.91
2018-08-06T11:25:50.725Z,36.40
2018-08-06T11:31:56.385Z,37.07
2018-08-06T11:38:02.016Z,37.18
2018-08-06T11:44:08.267Z,38.79
2018-08-06T11:50:13.978Z,38.83
2018-08-06T11:56:19.580Z,39.90
2018-08-06T12:02:25.644Z,40.60
2018-08-06T12:08:31.579Z,39.98
2018-08-06T12:14:37.457Z,40.64
2018-08-06T12:20:43.316Z,41.66
2018-08-06T12:26:48.969Z,42.52
2018-08-06T12:32:55.102Z,40.07
2018-08-06T12:39:12.055Z,41.04
2018-08-06T12:45:18.317Z,41.32
2018-08-06T12:51:24.040Z,42.78
2018-08-06T12:57:29.678Z,43.64
2018-08-06T13:03:35.455Z,44.70
2018-08-06T13:09:41.427Z,44.85
2018-08-06T13:15:47.349Z,46.02
2018-08-06T13:21:53.317Z,46.07
2018-08-06T13:27:59.043Z,46.05
2018-08-06T13:34:04.805Z,47.13
2018-08-06T13:40:11.428Z,46.91
2018-08-06T13:46:17.117Z,46.88
2018-08-06T13:52:22.739Z,46.25
2018-08-06T13:58:28.472Z,47.71
2018-08-06T14:04:34.101Z,46.66
2018-08-06T14:10:39.759Z,47.75
2018-08-06T14:16:45.599Z,47.66
2018-08-06T14:22:51.548Z,47.67
2018-08-06T14:28:57.604Z,47.08
2018-08-06T14:35:03.549Z,46.63
2018-08-06T14:41:09.596Z,46.27
2018-08-06T14:47:15.566Z,45.49
2018-08-06T14:53:21.659Z,45.74
2018-08-06T14:59:27.671Z,47.00
2018-08-06T15:05:33.690Z,46.35
2018-08-06T15:11:39.495Z,47.03
2018-08-06T15:17:45.672Z,45.80
2018-08-06T15:23:51.484Z,45.88
2018-08-06T15:29:57.034Z,47.45
2018-08-06T15:36:02.978Z,48.64
2018-08-06T15:42:08.995Z,46.97
2018-08-06T15:48:14.957Z,46.18
2018-08-06T15:54:20.858Z,46.64
2018-08-06T16:00:26.982Z,47.67
2018-08-06T16:06:32.935Z,47.88
2018-08-06T16:12:38.953Z,47.85
2018-08-06T16:18:44.849Z,48.65
2018-08-06T16:24:50.911Z,48.45
2018-08-06T16:30:56.733Z,48.92
2018-08-06T16:37:02.622Z,49.72
2018-08-06T16:43:08.877Z,50.16
2018-08-06T16:49:14.947Z,49.94
2018-08-06T16:55:20.626Z,48.55
2018-08-06T17:01:26.019Z,47.51
2018-08-06T17:07:31.506Z,46.73
2018-08-06T17:13:37.091Z,47.25
2018-08-06T17:19:42.751Z,48.19
2018-08-06T17:25:48.349Z,48.24
2018-08-06T17:31:53.924Z,47.58
2018-08-06T17:37:59.526Z,45.81
2018-08-06T17:44:05.201Z,44.19
2018-08-06T17:50:13.918Z,44.49
2018-08-06T17:56:19.530Z,43.85
2018-08-06T18:02:25.215Z,39.99
2018-08-06T18:08:30.794Z,38.53
2018-08-06T18:14:36.440Z,38.30
2018-08-06T18:20:42.060Z,36.87
2018-08-06T18:26:47.653Z,36.78
2018-08-06T18:32:53.355Z,35.43
2018-08-06T18:38:58.926Z,33.78
2018-08-06T18:45:06.032Z,32.12
2018-08-06T18:51:11.629Z,31.06
2018-08-06T18:57:17.254Z,30.40
2018-08-06T19:03:22.853Z,29.58
2018-08-06T19:09:28.426Z,29.10
2018-08-06T19:15:34.028Z,28.85
2018-08-06T19:21:39.603Z,28.42
2018-08-06T19:27:45.237Z,28.12
2018-08-06T19:33:50.741Z,27.89
2018-08-06T19:39:56.304Z,27.48
2018-08-06T19:46:01.845Z,27.29
2018-08-06T19:52:07.670Z,27.05
2018-08-06T19:58:13.452Z,27.13
2018-08-06T20:04:18.992Z,26.68
2018-08-06T20:10:24.676Z,26.58
2018-08-06T20:16:30.222Z,26.61
2018-08-06T20:22:35.827Z,26.39
2018-08-06T20:28:41.493Z,26.39
2018-08-06T20:34:47.107Z,26.13
2018-08-06T20:40:52.688Z,26.20
2018-08-06T20:46:58.363Z,25.95
2018-08-06T20:53:03.932Z,25.75
2018-08-06T20:59:09.565Z,25.51
2018-08-06T21:05:15.266Z,25.12
2018-08-06T21:11:20.878Z,24.96
2018-08-06T21:17:26.470Z,24.94
2018-08-06T21:23:32.109Z,24.71
2018-08-06T21:29:37.667Z,24.56
2018-08-06T21:35:43.324Z,24.54
2018-08-06T21:41:48.939Z,24.45
2018-08-06T21:47:54.588Z,24.46
2018-08-06T21:54:00.299Z,24.47
2018-08-06T22:00:11.277Z,24.22
2018-08-06T22:06:17.089Z,24.26
2018-08-06T22:12:23.517Z,24.14
2018-08-06T22:18:29.202Z,24.07
2018-08-06T22:24:34.815Z,24.24
2018-08-06T22:30:40.463Z,24.00
2018-08-06T22:36:46.061Z,24.04
2018-08-06T22:42:51.617Z,24.03
2018-08-06T22:48:57.216Z,23.97
2018-08-06T22:55:02.798Z,23.82
2018-08-06T23:01:10.581Z,23.81
2018-08-06T23:07:16.495Z,23.96
2018-08-06T23:13:22.424Z,23.74
2018-08-06T23:19:28.310Z,23.50
2018-08-06T23:25:34.026Z,23.45
2018-08-06T23:31:39.608Z,23.43
2018-08-06T23:37:45.667Z,23.48
2018-08-06T23:43:51.343Z,23.17
2018-08-06T23:49:56.917Z,23.26
2018-08-06T23:56:02.561Z,23.60
